KWVL/WVL METAR and TAF weather

Enter ICAO airport designator
Station Type Date Time Source
KWVL METAR 2022/06/30 12:56 UTC NOAA

KWVL 301256Z AUTO 34007KT 300V010 10SM FEW018 BKN039 BKN070 19/15 A3011 RMK AO2 SLP221 T01890150


Station Type Date Time Source
KWVL Decoded METAR 2022/06/30 12:56 UTC NOAA

Waterville, Waterville Robert LaFleur Airport, ME, United States (KWVL) 44-32N 069-41W
Jun 30, 2022 - 08:56 AM EDT / 2022.06.30 1256 UTC
Wind: from the NNW (340 degrees) at 8 MPH (7 KT) (direction variable):0
Visibility: 10 mile(s):0
Sky conditions: mostly cloudy
Temperature: 66.0 F (18.9 C)
Dew Point: 59.0 F (15.0 C)
Relative Humidity: 78%
Pressure (altimeter): 30.11 in. Hg (1019 hPa)
ob: KWVL 301256Z AUTO 34007KT 300V010 10SM FEW018 BKN039 BKN070 19/15 A3011 RMK AO2 SLP221 T01890150
cycle: 13

Station Type Date Time Source
KWVL TAF UTC NOAA

Error!

Example: see airport list